sensor_id;sensor_type;location;lat;lon;timestamp;P1;durP1;ratioP1;P2;durP2;ratioP2
11048;SDS011;5577;42.706;23.160;2023-04-30T00:02:38;13.80;;;9.47;;
11048;SDS011;5577;42.706;23.160;2023-04-30T00:05:22;12.83;;;9.60;;
11048;SDS011;5577;42.706;23.160;2023-04-30T00:08:06;15.50;;;9.50;;
11048;SDS011;5577;42.706;23.160;2023-04-30T00:10:50;13.40;;;9.87;;
11048;SDS011;5577;42.706;23.160;2023-04-30T00:13:34;17.13;;;10.03;;
11048;SDS011;5577;42.706;23.160;2023-04-30T00:16:18;15.50;;;9.67;;
11048;SDS011;5577;42.706;23.160;2023-04-30T00:19:02;12.73;;;8.57;;
11048;SDS011;5577;42.706;23.160;2023-04-30T00:21:46;18.77;;;11.10;;
11048;SDS011;5577;42.706;23.160;2023-04-30T00:24:30;49.07;;;33.80;;
11048;SDS011;5577;42.706;23.160;2023-04-30T00:27:14;28.57;;;18.47;;
11048;SDS011;5577;42.706;23.160;2023-04-30T00:29:58;13.70;;;9.80;;
11048;SDS011;5577;42.706;23.160;2023-04-30T00:32:42;19.80;;;11.80;;
11048;SDS011;5577;42.706;23.160;2023-04-30T00:35:28;23.70;;;13.90;;
11048;SDS011;5577;42.706;23.160;2023-04-30T00:38:12;30.37;;;13.63;;
11048;SDS011;5577;42.706;23.160;2023-04-30T00:40:56;20.03;;;11.63;;
11048;SDS011;5577;42.706;23.160;2023-04-30T00:43:40;18.70;;;10.37;;
11048;SDS011;5577;42.706;23.160;2023-04-30T00:46:24;11.50;;;7.77;;
11048;SDS011;5577;42.706;23.160;2023-04-30T00:49:08;13.37;;;8.57;;
11048;SDS011;5577;42.706;23.160;2023-04-30T00:51:51;10.13;;;7.00;;
11048;SDS011;5577;42.706;23.160;2023-04-30T00:54:36;8.50;;;6.03;;
11048;SDS011;5577;42.706;23.160;2023-04-30T00:57:20;8.73;;;6.30;;
11048;SDS011;5577;42.706;23.160;2023-04-30T01:00:05;9.77;;;6.63;;
11048;SDS011;5577;42.706;23.160;2023-04-30T01:02:54;10.57;;;6.63;;
11048;SDS011;5577;42.706;23.160;2023-04-30T01:05:39;11.33;;;6.90;;
11048;SDS011;5577;42.706;23.160;2023-04-30T01:08:23;8.43;;;5.47;;
11048;SDS011;5577;42.706;23.160;2023-04-30T01:20:36;6.83;;;5.77;;
11048;SDS011;5577;42.706;23.160;2023-04-30T01:23:32;7.30;;;5.57;;
11048;SDS011;5577;42.706;23.160;2023-04-30T01:27:12;7.70;;;5.63;;
11048;SDS011;5577;42.706;23.160;2023-04-30T01:29:38;8.07;;;5.37;;
11048;SDS011;5577;42.706;23.160;2023-04-30T01:32:24;6.53;;;4.97;;
11048;SDS011;5577;42.706;23.160;2023-04-30T01:35:09;8.53;;;6.07;;
11048;SDS011;5577;42.706;23.160;2023-04-30T01:40:55;9.20;;;6.03;;
11048;SDS011;5577;42.706;23.160;2023-04-30T01:46:34;8.90;;;6.57;;
11048;SDS011;5577;42.706;23.160;2023-04-30T01:52:22;11.03;;;6.77;;
11048;SDS011;5577;42.706;23.160;2023-04-30T01:55:27;8.30;;;6.17;;
11048;SDS011;5577;42.706;23.160;2023-04-30T01:58:18;10.27;;;6.00;;
11048;SDS011;5577;42.706;23.160;2023-04-30T02:01:05;8.97;;;6.37;;
11048;SDS011;5577;42.706;23.160;2023-04-30T02:03:49;8.00;;;6.33;;
11048;SDS011;5577;42.706;23.160;2023-04-30T02:06:33;6.90;;;5.77;;
11048;SDS011;5577;42.706;23.160;2023-04-30T02:09:17;8.37;;;6.40;;
11048;SDS011;5577;42.706;23.160;2023-04-30T02:12:01;8.13;;;6.40;;
11048;SDS011;5577;42.706;23.160;2023-04-30T02:14:46;12.40;;;8.83;;
11048;SDS011;5577;42.706;23.160;2023-04-30T02:17:30;13.37;;;7.73;;
11048;SDS011;5577;42.706;23.160;2023-04-30T02:20:14;8.53;;;7.13;;
11048;SDS011;5577;42.706;23.160;2023-04-30T02:22:58;12.07;;;7.50;;
11048;SDS011;5577;42.706;23.160;2023-04-30T02:25:44;8.47;;;7.03;;
11048;SDS011;5577;42.706;23.160;2023-04-30T02:28:28;10.90;;;7.70;;
11048;SDS011;5577;42.706;23.160;2023-04-30T02:31:12;10.50;;;8.13;;
11048;SDS011;5577;42.706;23.160;2023-04-30T02:33:56;10.47;;;7.30;;
11048;SDS011;5577;42.706;23.160;2023-04-30T02:36:40;11.03;;;7.73;;
11048;SDS011;5577;42.706;23.160;2023-04-30T02:39:24;10.40;;;7.30;;
11048;SDS011;5577;42.706;23.160;2023-04-30T02:42:08;10.87;;;7.73;;
11048;SDS011;5577;42.706;23.160;2023-04-30T02:44:52;9.47;;;7.40;;
11048;SDS011;5577;42.706;23.160;2023-04-30T02:47:36;11.40;;;7.40;;
11048;SDS011;5577;42.706;23.160;2023-04-30T02:50:20;11.90;;;7.27;;
11048;SDS011;5577;42.706;23.160;2023-04-30T02:53:04;10.60;;;7.13;;
11048;SDS011;5577;42.706;23.160;2023-04-30T02:55:48;8.90;;;7.03;;
11048;SDS011;5577;42.706;23.160;2023-04-30T02:58:32;9.40;;;7.13;;
11048;SDS011;5577;42.706;23.160;2023-04-30T03:01:16;9.50;;;7.03;;
11048;SDS011;5577;42.706;23.160;2023-04-30T03:04:00;10.43;;;7.77;;
11048;SDS011;5577;42.706;23.160;2023-04-30T03:06:46;11.67;;;7.47;;
11048;SDS011;5577;42.706;23.160;2023-04-30T03:09:30;11.70;;;7.40;;
11048;SDS011;5577;42.706;23.160;2023-04-30T03:12:14;11.27;;;7.43;;
11048;SDS011;5577;42.706;23.160;2023-04-30T03:14:58;11.20;;;7.07;;
11048;SDS011;5577;42.706;23.160;2023-04-30T03:17:42;12.63;;;9.50;;
11048;SDS011;5577;42.706;23.160;2023-04-30T03:20:26;17.13;;;12.90;;
11048;SDS011;5577;42.706;23.160;2023-04-30T03:23:10;10.93;;;8.23;;
11048;SDS011;5577;42.706;23.160;2023-04-30T03:25:54;15.10;;;8.57;;
11048;SDS011;5577;42.706;23.160;2023-04-30T03:28:38;14.63;;;8.37;;
11048;SDS011;5577;42.706;23.160;2023-04-30T03:31:22;8.97;;;7.60;;
11048;SDS011;5577;42.706;23.160;2023-04-30T03:34:06;12.07;;;7.50;;
11048;SDS011;5577;42.706;23.160;2023-04-30T03:36:50;12.27;;;9.03;;
11048;SDS011;5577;42.706;23.160;2023-04-30T03:39:33;13.57;;;9.70;;
11048;SDS011;5577;42.706;23.160;2023-04-30T03:42:18;13.67;;;8.97;;
11048;SDS011;5577;42.706;23.160;2023-04-30T03:45:02;13.37;;;8.50;;
11048;SDS011;5577;42.706;23.160;2023-04-30T03:47:46;11.10;;;8.53;;
11048;SDS011;5577;42.706;23.160;2023-04-30T03:50:31;10.97;;;7.87;;
11048;SDS011;5577;42.706;23.160;2023-04-30T03:53:15;12.50;;;8.83;;
11048;SDS011;5577;42.706;23.160;2023-04-30T03:55:59;11.47;;;8.30;;
11048;SDS011;5577;42.706;23.160;2023-04-30T03:58:43;11.00;;;8.17;;
11048;SDS011;5577;42.706;23.160;2023-04-30T04:01:28;12.60;;;8.70;;
11048;SDS011;5577;42.706;23.160;2023-04-30T04:04:12;14.60;;;9.03;;
11048;SDS011;5577;42.706;23.160;2023-04-30T04:06:56;15.20;;;10.10;;
11048;SDS011;5577;42.706;23.160;2023-04-30T04:09:40;15.97;;;10.27;;
11048;SDS011;5577;42.706;23.160;2023-04-30T04:12:24;12.83;;;10.37;;
11048;SDS011;5577;42.706;23.160;2023-04-30T04:15:09;17.70;;;11.10;;
11048;SDS011;5577;42.706;23.160;2023-04-30T04:17:54;19.23;;;13.77;;
11048;SDS011;5577;42.706;23.160;2023-04-30T04:20:38;21.43;;;13.93;;
11048;SDS011;5577;42.706;23.160;2023-04-30T04:23:22;16.77;;;11.43;;
11048;SDS011;5577;42.706;23.160;2023-04-30T04:26:06;15.97;;;10.97;;
11048;SDS011;5577;42.706;23.160;2023-04-30T04:28:50;14.87;;;9.00;;
11048;SDS011;5577;42.706;23.160;2023-04-30T04:31:35;13.97;;;9.60;;
11048;SDS011;5577;42.706;23.160;2023-04-30T04:34:19;16.00;;;10.60;;
11048;SDS011;5577;42.706;23.160;2023-04-30T04:37:03;14.47;;;9.97;;
11048;SDS011;5577;42.706;23.160;2023-04-30T04:39:48;13.70;;;9.63;;
11048;SDS011;5577;42.706;23.160;2023-04-30T04:42:32;13.13;;;9.43;;
11048;SDS011;5577;42.706;23.160;2023-04-30T04:45:16;15.77;;;8.93;;
11048;SDS011;5577;42.706;23.160;2023-04-30T04:48:01;10.00;;;8.20;;
11048;SDS011;5577;42.706;23.160;2023-04-30T04:50:45;16.20;;;8.93;;
11048;SDS011;5577;42.706;23.160;2023-04-30T04:53:29;9.73;;;7.13;;
11048;SDS011;5577;42.706;23.160;2023-04-30T04:56:13;9.27;;;7.07;;
11048;SDS011;5577;42.706;23.160;2023-04-30T04:58:57;10.10;;;6.83;;
11048;SDS011;5577;42.706;23.160;2023-04-30T05:01:42;8.40;;;7.00;;
11048;SDS011;5577;42.706;23.160;2023-04-30T05:04:25;7.70;;;6.87;;
11048;SDS011;5577;42.706;23.160;2023-04-30T05:07:10;10.47;;;8.13;;
11048;SDS011;5577;42.706;23.160;2023-04-30T05:09:54;11.33;;;7.90;;
11048;SDS011;5577;42.706;23.160;2023-04-30T05:12:38;15.07;;;9.07;;
11048;SDS011;5577;42.706;23.160;2023-04-30T05:15:22;13.73;;;9.17;;
11048;SDS011;5577;42.706;23.160;2023-04-30T05:18:06;14.50;;;9.13;;
11048;SDS011;5577;42.706;23.160;2023-04-30T05:20:50;14.50;;;9.50;;
11048;SDS011;5577;42.706;23.160;2023-04-30T05:23:34;12.20;;;8.30;;
11048;SDS011;5577;42.706;23.160;2023-04-30T05:26:18;11.10;;;8.30;;
11048;SDS011;5577;42.706;23.160;2023-04-30T05:29:02;11.40;;;8.57;;
11048;SDS011;5577;42.706;23.160;2023-04-30T05:31:46;12.90;;;8.20;;
11048;SDS011;5577;42.706;23.160;2023-04-30T05:34:30;12.77;;;9.10;;
11048;SDS011;5577;42.706;23.160;2023-04-30T05:37:14;10.40;;;8.40;;
11048;SDS011;5577;42.706;23.160;2023-04-30T05:40:00;12.67;;;8.83;;
11048;SDS011;5577;42.706;23.160;2023-04-30T05:42:44;12.70;;;8.70;;
11048;SDS011;5577;42.706;23.160;2023-04-30T05:45:28;12.33;;;8.60;;
11048;SDS011;5577;42.706;23.160;2023-04-30T05:48:12;12.47;;;8.50;;
11048;SDS011;5577;42.706;23.160;2023-04-30T05:50:56;13.93;;;9.10;;
11048;SDS011;5577;42.706;23.160;2023-04-30T05:53:40;13.83;;;9.00;;
11048;SDS011;5577;42.706;23.160;2023-04-30T05:56:24;12.73;;;8.10;;
11048;SDS011;5577;42.706;23.160;2023-04-30T05:59:08;15.10;;;8.20;;
11048;SDS011;5577;42.706;23.160;2023-04-30T06:01:52;13.00;;;8.13;;
11048;SDS011;5577;42.706;23.160;2023-04-30T06:04:36;16.17;;;8.97;;
11048;SDS011;5577;42.706;23.160;2023-04-30T06:07:20;13.43;;;9.23;;
11048;SDS011;5577;42.706;23.160;2023-04-30T06:10:04;12.97;;;9.53;;
11048;SDS011;5577;42.706;23.160;2023-04-30T06:12:49;15.90;;;9.07;;
11048;SDS011;5577;42.706;23.160;2023-04-30T06:15:33;13.53;;;8.60;;
11048;SDS011;5577;42.706;23.160;2023-04-30T06:18:18;14.70;;;9.30;;
11048;SDS011;5577;42.706;23.160;2023-04-30T06:21:02;12.30;;;8.70;;
11048;SDS011;5577;42.706;23.160;2023-04-30T06:23:47;13.93;;;8.50;;
11048;SDS011;5577;42.706;23.160;2023-04-30T06:26:31;19.00;;;8.87;;
11048;SDS011;5577;42.706;23.160;2023-04-30T06:29:15;14.70;;;9.87;;
11048;SDS011;5577;42.706;23.160;2023-04-30T06:31:59;14.93;;;9.80;;
11048;SDS011;5577;42.706;23.160;2023-04-30T06:34:44;19.07;;;9.73;;
11048;SDS011;5577;42.706;23.160;2023-04-30T06:37:27;14.60;;;9.10;;
11048;SDS011;5577;42.706;23.160;2023-04-30T06:40:12;18.13;;;8.67;;
11048;SDS011;5577;42.706;23.160;2023-04-30T06:42:56;13.97;;;8.90;;
11048;SDS011;5577;42.706;23.160;2023-04-30T06:45:39;13.60;;;9.50;;
11048;SDS011;5577;42.706;23.160;2023-04-30T06:48:23;9.00;;;6.20;;
11048;SDS011;5577;42.706;23.160;2023-04-30T06:51:08;8.43;;;6.33;;
11048;SDS011;5577;42.706;23.160;2023-04-30T06:53:52;11.57;;;6.67;;
11048;SDS011;5577;42.706;23.160;2023-04-30T06:56:36;11.73;;;6.27;;
11048;SDS011;5577;42.706;23.160;2023-04-30T06:59:20;7.77;;;5.53;;
11048;SDS011;5577;42.706;23.160;2023-04-30T07:02:04;9.37;;;6.03;;
11048;SDS011;5577;42.706;23.160;2023-04-30T07:04:48;9.53;;;6.20;;
11048;SDS011;5577;42.706;23.160;2023-04-30T07:07:32;8.40;;;5.80;;
11048;SDS011;5577;42.706;23.160;2023-04-30T07:10:17;8.90;;;6.13;;
11048;SDS011;5577;42.706;23.160;2023-04-30T07:13:01;8.03;;;5.80;;
11048;SDS011;5577;42.706;23.160;2023-04-30T07:15:45;9.53;;;5.83;;
11048;SDS011;5577;42.706;23.160;2023-04-30T07:18:29;9.40;;;5.83;;
11048;SDS011;5577;42.706;23.160;2023-04-30T07:21:14;10.57;;;6.07;;
11048;SDS011;5577;42.706;23.160;2023-04-30T07:23:58;7.27;;;5.43;;
11048;SDS011;5577;42.706;23.160;2023-04-30T07:26:42;7.97;;;4.90;;
11048;SDS011;5577;42.706;23.160;2023-04-30T07:29:26;5.83;;;4.43;;
11048;SDS011;5577;42.706;23.160;2023-04-30T07:32:11;6.50;;;4.30;;
11048;SDS011;5577;42.706;23.160;2023-04-30T07:34:55;4.53;;;4.13;;
11048;SDS011;5577;42.706;23.160;2023-04-30T07:37:39;5.67;;;4.00;;
11048;SDS011;5577;42.706;23.160;2023-04-30T07:40:24;4.83;;;3.87;;
11048;SDS011;5577;42.706;23.160;2023-04-30T07:43:08;5.87;;;4.10;;
11048;SDS011;5577;42.706;23.160;2023-04-30T07:45:52;5.90;;;4.00;;
11048;SDS011;5577;42.706;23.160;2023-04-30T07:48:37;6.40;;;3.97;;
11048;SDS011;5577;42.706;23.160;2023-04-30T07:51:21;5.87;;;4.50;;
11048;SDS011;5577;42.706;23.160;2023-04-30T07:54:06;7.43;;;4.67;;
11048;SDS011;5577;42.706;23.160;2023-04-30T07:56:49;6.00;;;4.47;;
11048;SDS011;5577;42.706;23.160;2023-04-30T07:59:33;6.37;;;4.53;;
11048;SDS011;5577;42.706;23.160;2023-04-30T08:02:17;7.87;;;4.67;;
11048;SDS011;5577;42.706;23.160;2023-04-30T08:05:01;5.23;;;4.73;;
11048;SDS011;5577;42.706;23.160;2023-04-30T08:07:46;6.23;;;3.70;;
11048;SDS011;5577;42.706;23.160;2023-04-30T08:10:30;7.50;;;4.30;;
11048;SDS011;5577;42.706;23.160;2023-04-30T08:13:14;6.20;;;4.93;;
11048;SDS011;5577;42.706;23.160;2023-04-30T08:15:59;10.03;;;4.73;;
11048;SDS011;5577;42.706;23.160;2023-04-30T08:18:43;6.13;;;4.20;;
11048;SDS011;5577;42.706;23.160;2023-04-30T08:21:29;4.40;;;3.83;;
11048;SDS011;5577;42.706;23.160;2023-04-30T08:24:13;7.00;;;4.27;;
11048;SDS011;5577;42.706;23.160;2023-04-30T08:26:57;4.77;;;4.00;;
11048;SDS011;5577;42.706;23.160;2023-04-30T08:29:43;7.30;;;3.87;;
11048;SDS011;5577;42.706;23.160;2023-04-30T08:32:27;6.77;;;4.07;;
11048;SDS011;5577;42.706;23.160;2023-04-30T08:35:12;6.00;;;4.90;;
11048;SDS011;5577;42.706;23.160;2023-04-30T08:37:56;4.87;;;4.10;;
11048;SDS011;5577;42.706;23.160;2023-04-30T08:40:40;6.77;;;4.13;;
11048;SDS011;5577;42.706;23.160;2023-04-30T08:43:24;5.13;;;4.00;;
11048;SDS011;5577;42.706;23.160;2023-04-30T08:46:08;6.33;;;4.03;;
11048;SDS011;5577;42.706;23.160;2023-04-30T08:48:55;5.53;;;4.30;;
11048;SDS011;5577;42.706;23.160;2023-04-30T08:51:40;3.83;;;3.53;;
11048;SDS011;5577;42.706;23.160;2023-04-30T08:54:24;5.33;;;4.03;;
11048;SDS011;5577;42.706;23.160;2023-04-30T08:57:11;5.40;;;4.40;;
11048;SDS011;5577;42.706;23.160;2023-04-30T08:59:54;4.63;;;3.87;;
11048;SDS011;5577;42.706;23.160;2023-04-30T09:02:41;3.83;;;3.53;;
11048;SDS011;5577;42.706;23.160;2023-04-30T09:05:26;4.37;;;4.07;;
11048;SDS011;5577;42.706;23.160;2023-04-30T09:08:15;4.70;;;4.23;;
11048;SDS011;5577;42.706;23.160;2023-04-30T09:11:00;4.57;;;4.23;;
11048;SDS011;5577;42.706;23.160;2023-04-30T09:13:44;4.70;;;4.30;;
11048;SDS011;5577;42.706;23.160;2023-04-30T09:16:29;6.03;;;4.17;;
11048;SDS011;5577;42.706;23.160;2023-04-30T09:19:28;4.67;;;4.00;;
11048;SDS011;5577;42.706;23.160;2023-04-30T09:22:21;7.23;;;4.10;;
11048;SDS011;5577;42.706;23.160;2023-04-30T09:25:06;4.23;;;3.90;;
11048;SDS011;5577;42.706;23.160;2023-04-30T09:28:11;4.23;;;3.93;;
11048;SDS011;5577;42.706;23.160;2023-04-30T09:30:56;7.07;;;4.10;;
11048;SDS011;5577;42.706;23.160;2023-04-30T09:33:44;4.27;;;3.97;;
11048;SDS011;5577;42.706;23.160;2023-04-30T09:36:29;5.27;;;3.63;;
11048;SDS011;5577;42.706;23.160;2023-04-30T09:39:14;3.37;;;3.10;;
11048;SDS011;5577;42.706;23.160;2023-04-30T09:42:09;3.70;;;3.37;;
11048;SDS011;5577;42.706;23.160;2023-04-30T09:44:53;3.60;;;3.30;;
11048;SDS011;5577;42.706;23.160;2023-04-30T09:47:37;3.83;;;3.43;;
11048;SDS011;5577;42.706;23.160;2023-04-30T09:50:24;3.97;;;3.43;;
11048;SDS011;5577;42.706;23.160;2023-04-30T09:53:09;4.40;;;4.00;;
11048;SDS011;5577;42.706;23.160;2023-04-30T09:55:57;6.17;;;3.87;;
11048;SDS011;5577;42.706;23.160;2023-04-30T09:58:42;3.60;;;3.30;;
11048;SDS011;5577;42.706;23.160;2023-04-30T10:01:28;4.43;;;3.93;;
11048;SDS011;5577;42.706;23.160;2023-04-30T10:04:13;5.33;;;4.63;;
11048;SDS011;5577;42.706;23.160;2023-04-30T10:06:58;5.77;;;5.30;;
11048;SDS011;5577;42.706;23.160;2023-04-30T10:09:49;6.43;;;5.83;;
11048;SDS011;5577;42.706;23.160;2023-04-30T10:12:47;6.10;;;5.23;;
11048;SDS011;5577;42.706;23.160;2023-04-30T10:15:35;5.67;;;5.10;;
11048;SDS011;5577;42.706;23.160;2023-04-30T10:18:27;6.17;;;5.00;;
11048;SDS011;5577;42.706;23.160;2023-04-30T10:21:11;7.27;;;5.20;;
11048;SDS011;5577;42.706;23.160;2023-04-30T10:23:59;7.17;;;5.43;;
11048;SDS011;5577;42.706;23.160;2023-04-30T10:26:45;4.50;;;4.07;;
11048;SDS011;5577;42.706;23.160;2023-04-30T10:29:30;4.60;;;4.23;;
11048;SDS011;5577;42.706;23.160;2023-04-30T10:32:14;4.87;;;4.30;;
11048;SDS011;5577;42.706;23.160;2023-04-30T10:35:01;5.40;;;4.03;;
11048;SDS011;5577;42.706;23.160;2023-04-30T10:41:07;3.90;;;3.60;;
11048;SDS011;5577;42.706;23.160;2023-04-30T10:43:55;3.17;;;2.97;;
11048;SDS011;5577;42.706;23.160;2023-04-30T10:46:41;3.33;;;3.13;;
11048;SDS011;5577;42.706;23.160;2023-04-30T10:49:25;3.40;;;3.10;;
11048;SDS011;5577;42.706;23.160;2023-04-30T10:52:09;3.10;;;2.90;;
11048;SDS011;5577;42.706;23.160;2023-04-30T10:54:54;3.27;;;3.07;;
11048;SDS011;5577;42.706;23.160;2023-04-30T10:57:39;4.33;;;3.30;;
11048;SDS011;5577;42.706;23.160;2023-04-30T11:00:26;4.93;;;3.30;;
11048;SDS011;5577;42.706;23.160;2023-04-30T11:03:11;3.80;;;3.50;;
11048;SDS011;5577;42.706;23.160;2023-04-30T11:05:55;4.17;;;3.87;;
11048;SDS011;5577;42.706;23.160;2023-04-30T11:08:39;5.77;;;4.10;;
11048;SDS011;5577;42.706;23.160;2023-04-30T11:11:32;3.83;;;3.63;;
11048;SDS011;5577;42.706;23.160;2023-04-30T11:14:19;4.63;;;4.20;;
11048;SDS011;5577;42.706;23.160;2023-04-30T11:17:03;5.30;;;4.80;;
11048;SDS011;5577;42.706;23.160;2023-04-30T11:19:48;5.40;;;4.23;;
11048;SDS011;5577;42.706;23.160;2023-04-30T11:22:33;4.33;;;4.00;;
11048;SDS011;5577;42.706;23.160;2023-04-30T11:25:20;5.17;;;4.17;;
11048;SDS011;5577;42.706;23.160;2023-04-30T11:28:05;5.83;;;5.33;;
11048;SDS011;5577;42.706;23.160;2023-04-30T11:30:57;4.97;;;4.57;;
11048;SDS011;5577;42.706;23.160;2023-04-30T11:33:42;5.77;;;4.70;;
11048;SDS011;5577;42.706;23.160;2023-04-30T11:36:26;6.10;;;4.87;;
11048;SDS011;5577;42.706;23.160;2023-04-30T11:39:13;4.83;;;4.20;;
11048;SDS011;5577;42.706;23.160;2023-04-30T11:42:00;3.60;;;3.30;;
11048;SDS011;5577;42.706;23.160;2023-04-30T11:44:46;3.97;;;3.67;;
11048;SDS011;5577;42.706;23.160;2023-04-30T11:50:32;4.67;;;3.60;;
11048;SDS011;5577;42.706;23.160;2023-04-30T11:53:16;5.17;;;3.50;;
11048;SDS011;5577;42.706;23.160;2023-04-30T11:56:03;2.90;;;2.70;;
11048;SDS011;5577;42.706;23.160;2023-04-30T11:58:48;4.27;;;2.97;;
11048;SDS011;5577;42.706;23.160;2023-04-30T12:01:33;3.07;;;2.87;;
11048;SDS011;5577;42.706;23.160;2023-04-30T12:04:17;3.63;;;3.17;;
11048;SDS011;5577;42.706;23.160;2023-04-30T12:07:02;3.30;;;2.97;;
11048;SDS011;5577;42.706;23.160;2023-04-30T12:09:55;3.40;;;3.10;;
11048;SDS011;5577;42.706;23.160;2023-04-30T12:12:42;3.10;;;2.80;;
11048;SDS011;5577;42.706;23.160;2023-04-30T12:15:27;3.93;;;2.60;;
11048;SDS011;5577;42.706;23.160;2023-04-30T12:18:12;2.93;;;2.70;;
11048;SDS011;5577;42.706;23.160;2023-04-30T12:20:57;2.87;;;2.63;;
11048;SDS011;5577;42.706;23.160;2023-04-30T12:23:42;5.80;;;4.27;;
11048;SDS011;5577;42.706;23.160;2023-04-30T12:26:37;3.73;;;3.43;;
11048;SDS011;5577;42.706;23.160;2023-04-30T12:29:22;4.40;;;3.57;;
11048;SDS011;5577;42.706;23.160;2023-04-30T12:32:08;4.80;;;3.67;;
11048;SDS011;5577;42.706;23.160;2023-04-30T12:34:56;4.37;;;3.97;;
11048;SDS011;5577;42.706;23.160;2023-04-30T12:37:42;4.73;;;3.50;;
11048;SDS011;5577;42.706;23.160;2023-04-30T12:40:34;5.07;;;3.70;;
11048;SDS011;5577;42.706;23.160;2023-04-30T12:43:19;3.50;;;3.20;;
11048;SDS011;5577;42.706;23.160;2023-04-30T12:46:03;4.07;;;3.60;;
11048;SDS011;5577;42.706;23.160;2023-04-30T12:48:47;3.37;;;3.13;;
11048;SDS011;5577;42.706;23.160;2023-04-30T12:51:34;2.10;;;2.00;;
11048;SDS011;5577;42.706;23.160;2023-04-30T12:54:25;2.00;;;1.80;;
11048;SDS011;5577;42.706;23.160;2023-04-30T12:57:11;1.93;;;1.67;;
11048;SDS011;5577;42.706;23.160;2023-04-30T12:59:56;1.63;;;1.53;;
11048;SDS011;5577;42.706;23.160;2023-04-30T13:02:42;3.53;;;1.80;;
11048;SDS011;5577;42.706;23.160;2023-04-30T13:05:26;1.73;;;1.63;;
11048;SDS011;5577;42.706;23.160;2023-04-30T13:08:11;1.60;;;1.50;;
11048;SDS011;5577;42.706;23.160;2023-04-30T13:10:56;2.13;;;1.80;;
11048;SDS011;5577;42.706;23.160;2023-04-30T13:13:39;31.57;;;25.17;;
11048;SDS011;5577;42.706;23.160;2023-04-30T13:16:24;2.37;;;1.90;;
11048;SDS011;5577;42.706;23.160;2023-04-30T13:19:08;2.10;;;1.90;;
11048;SDS011;5577;42.706;23.160;2023-04-30T13:21:53;2.17;;;1.80;;
11048;SDS011;5577;42.706;23.160;2023-04-30T13:24:37;2.30;;;2.10;;
11048;SDS011;5577;42.706;23.160;2023-04-30T13:27:20;2.37;;;2.17;;
11048;SDS011;5577;42.706;23.160;2023-04-30T13:30:05;2.30;;;1.70;;
11048;SDS011;5577;42.706;23.160;2023-04-30T13:32:49;1.80;;;1.70;;
11048;SDS011;5577;42.706;23.160;2023-04-30T13:35:35;1.97;;;1.70;;
11048;SDS011;5577;42.706;23.160;2023-04-30T13:38:19;1.87;;;1.77;;
11048;SDS011;5577;42.706;23.160;2023-04-30T13:41:03;1.90;;;1.80;;
11048;SDS011;5577;42.706;23.160;2023-04-30T13:43:48;2.17;;;1.93;;
11048;SDS011;5577;42.706;23.160;2023-04-30T13:46:32;2.20;;;2.03;;
11048;SDS011;5577;42.706;23.160;2023-04-30T13:49:15;2.43;;;2.23;;
11048;SDS011;5577;42.706;23.160;2023-04-30T13:51:59;2.70;;;2.00;;
11048;SDS011;5577;42.706;23.160;2023-04-30T13:54:44;3.60;;;2.17;;
11048;SDS011;5577;42.706;23.160;2023-04-30T13:57:28;2.03;;;1.93;;
11048;SDS011;5577;42.706;23.160;2023-04-30T14:00:15;2.90;;;1.90;;
11048;SDS011;5577;42.706;23.160;2023-04-30T14:02:59;2.30;;;2.10;;
11048;SDS011;5577;42.706;23.160;2023-04-30T14:05:43;2.63;;;2.43;;
11048;SDS011;5577;42.706;23.160;2023-04-30T14:08:27;3.00;;;2.27;;
11048;SDS011;5577;42.706;23.160;2023-04-30T14:11:13;2.30;;;2.17;;
11048;SDS011;5577;42.706;23.160;2023-04-30T14:13:58;3.50;;;2.07;;
11048;SDS011;5577;42.706;23.160;2023-04-30T14:16:42;3.67;;;2.50;;
11048;SDS011;5577;42.706;23.160;2023-04-30T14:19:27;2.10;;;2.00;;
11048;SDS011;5577;42.706;23.160;2023-04-30T14:22:11;2.33;;;2.23;;
11048;SDS011;5577;42.706;23.160;2023-04-30T14:24:56;2.40;;;1.87;;
11048;SDS011;5577;42.706;23.160;2023-04-30T14:27:40;1.50;;;1.40;;
11048;SDS011;5577;42.706;23.160;2023-04-30T14:30:24;1.90;;;1.80;;
11048;SDS011;5577;42.706;23.160;2023-04-30T14:33:08;2.10;;;1.90;;
11048;SDS011;5577;42.706;23.160;2023-04-30T14:35:55;2.97;;;1.73;;
11048;SDS011;5577;42.706;23.160;2023-04-30T14:38:38;3.20;;;2.20;;
11048;SDS011;5577;42.706;23.160;2023-04-30T14:41:22;2.43;;;2.10;;
11048;SDS011;5577;42.706;23.160;2023-04-30T14:44:06;2.10;;;1.90;;
11048;SDS011;5577;42.706;23.160;2023-04-30T14:46:50;2.47;;;2.17;;
11048;SDS011;5577;42.706;23.160;2023-04-30T14:49:35;3.00;;;2.17;;
11048;SDS011;5577;42.706;23.160;2023-04-30T14:52:20;2.30;;;2.13;;
11048;SDS011;5577;42.706;23.160;2023-04-30T14:55:05;2.73;;;2.50;;
11048;SDS011;5577;42.706;23.160;2023-04-30T14:57:49;2.90;;;2.70;;
11048;SDS011;5577;42.706;23.160;2023-04-30T15:00:34;2.53;;;2.33;;
11048;SDS011;5577;42.706;23.160;2023-04-30T15:03:17;2.87;;;2.50;;
11048;SDS011;5577;42.706;23.160;2023-04-30T15:06:01;3.53;;;2.50;;
11048;SDS011;5577;42.706;23.160;2023-04-30T15:08:46;2.60;;;2.40;;
11048;SDS011;5577;42.706;23.160;2023-04-30T15:11:29;3.17;;;2.40;;
11048;SDS011;5577;42.706;23.160;2023-04-30T15:14:13;2.97;;;2.40;;
11048;SDS011;5577;42.706;23.160;2023-04-30T15:16:59;2.97;;;2.70;;
11048;SDS011;5577;42.706;23.160;2023-04-30T15:19:43;2.87;;;2.60;;
11048;SDS011;5577;42.706;23.160;2023-04-30T15:22:27;3.00;;;2.60;;
11048;SDS011;5577;42.706;23.160;2023-04-30T15:25:12;2.90;;;2.40;;
11048;SDS011;5577;42.706;23.160;2023-04-30T15:27:56;2.83;;;2.63;;
11048;SDS011;5577;42.706;23.160;2023-04-30T15:30:41;5.13;;;2.67;;
11048;SDS011;5577;42.706;23.160;2023-04-30T15:33:25;3.67;;;2.90;;
11048;SDS011;5577;42.706;23.160;2023-04-30T15:36:11;3.20;;;2.87;;
11048;SDS011;5577;42.706;23.160;2023-04-30T15:38:55;4.10;;;2.97;;
11048;SDS011;5577;42.706;23.160;2023-04-30T15:41:39;4.03;;;3.33;;
11048;SDS011;5577;42.706;23.160;2023-04-30T15:44:23;4.10;;;3.37;;
11048;SDS011;5577;42.706;23.160;2023-04-30T15:47:07;4.40;;;3.33;;
11048;SDS011;5577;42.706;23.160;2023-04-30T15:49:51;3.60;;;3.30;;
11048;SDS011;5577;42.706;23.160;2023-04-30T15:52:35;4.40;;;3.13;;
11048;SDS011;5577;42.706;23.160;2023-04-30T15:55:19;3.83;;;3.50;;
11048;SDS011;5577;42.706;23.160;2023-04-30T15:58:03;5.23;;;3.93;;
11048;SDS011;5577;42.706;23.160;2023-04-30T16:00:47;4.83;;;3.80;;
11048;SDS011;5577;42.706;23.160;2023-04-30T16:03:31;4.43;;;3.47;;
11048;SDS011;5577;42.706;23.160;2023-04-30T16:06:16;4.63;;;3.50;;
11048;SDS011;5577;42.706;23.160;2023-04-30T16:09:00;3.30;;;3.00;;
11048;SDS011;5577;42.706;23.160;2023-04-30T16:11:49;3.73;;;3.43;;
11048;SDS011;5577;42.706;23.160;2023-04-30T16:14:34;4.17;;;3.30;;
11048;SDS011;5577;42.706;23.160;2023-04-30T16:17:17;3.63;;;3.17;;
11048;SDS011;5577;42.706;23.160;2023-04-30T16:20:02;4.97;;;4.00;;
11048;SDS011;5577;42.706;23.160;2023-04-30T16:22:47;4.40;;;3.43;;
11048;SDS011;5577;42.706;23.160;2023-04-30T16:25:32;4.60;;;4.20;;
11048;SDS011;5577;42.706;23.160;2023-04-30T16:28:16;7.33;;;4.80;;
11048;SDS011;5577;42.706;23.160;2023-04-30T16:31:00;4.50;;;3.73;;
11048;SDS011;5577;42.706;23.160;2023-04-30T16:33:43;7.37;;;5.60;;
11048;SDS011;5577;42.706;23.160;2023-04-30T16:36:28;5.83;;;4.70;;
11048;SDS011;5577;42.706;23.160;2023-04-30T16:39:11;4.70;;;4.27;;
11048;SDS011;5577;42.706;23.160;2023-04-30T16:41:56;6.03;;;4.50;;
11048;SDS011;5577;42.706;23.160;2023-04-30T16:44:40;6.77;;;5.80;;
11048;SDS011;5577;42.706;23.160;2023-04-30T16:47:24;6.10;;;4.90;;
11048;SDS011;5577;42.706;23.160;2023-04-30T16:50:08;5.27;;;4.73;;
11048;SDS011;5577;42.706;23.160;2023-04-30T16:52:53;6.47;;;4.20;;
11048;SDS011;5577;42.706;23.160;2023-04-30T16:55:37;4.27;;;3.73;;